createdAt,value
2023-05-12T00:00:26.347Z,5.75
2023-05-12T00:02:53.650Z,6.57
2023-05-12T00:05:20.967Z,6.63
2023-05-12T00:07:48.222Z,5.85
2023-05-12T00:10:15.505Z,6.47
2023-05-12T00:12:42.839Z,5.00
2023-05-12T00:15:10.491Z,5.93
2023-05-12T00:17:37.770Z,5.93
2023-05-12T00:20:05.558Z,5.65
2023-05-12T00:22:32.813Z,5.78
2023-05-12T00:25:00.047Z,5.30
2023-05-12T00:27:27.355Z,6.00
2023-05-12T00:29:54.555Z,5.57
2023-05-12T00:32:22.737Z,4.95
2023-05-12T00:34:50.851Z,4.20
2023-05-12T00:37:18.086Z,5.00
2023-05-12T00:39:45.370Z,4.47
2023-05-12T00:42:12.927Z,4.93
2023-05-12T00:44:40.498Z,5.25
2023-05-12T00:47:07.790Z,4.95
2023-05-12T00:49:35.092Z,4.30
2023-05-12T00:52:03.267Z,4.50
2023-05-12T00:54:31.101Z,4.57
2023-05-12T00:56:58.436Z,5.47
2023-05-12T00:59:25.844Z,5.18
2023-05-12T01:01:53.281Z,5.93
2023-05-12T01:04:20.725Z,5.00
2023-05-12T01:06:56.242Z,5.13
2023-05-12T01:09:23.830Z,5.70
2023-05-12T01:11:51.517Z,5.40
2023-05-12T01:14:19.770Z,4.88
2023-05-12T01:16:53.501Z,5.63
2023-05-12T01:19:40.646Z,5.25
2023-05-12T01:22:10.849Z,5.63
2023-05-12T01:24:43.457Z,6.47
2023-05-12T01:27:11.341Z,4.65
2023-05-12T01:29:39.268Z,5.00
2023-05-12T01:32:06.708Z,5.90
2023-05-12T01:34:35.895Z,5.07
2023-05-12T01:37:03.175Z,5.97
2023-05-12T01:39:30.700Z,5.28
2023-05-12T01:41:58.242Z,5.35
2023-05-12T01:44:25.463Z,4.97
2023-05-12T01:46:52.809Z,5.05
2023-05-12T01:49:20.077Z,5.80
2023-05-12T01:51:48.611Z,5.00
2023-05-12T01:54:19.848Z,4.82
2023-05-12T01:56:47.374Z,4.45
2023-05-12T01:59:14.662Z,5.20
2023-05-12T02:01:42.442Z,4.80
2023-05-12T02:06:38.865Z,5.70
2023-05-12T02:09:06.273Z,5.03
2023-05-12T02:11:33.656Z,5.13
2023-05-12T02:14:00.891Z,5.25
2023-05-12T02:16:28.238Z,5.47
2023-05-12T02:18:55.629Z,6.65
2023-05-12T02:21:22.985Z,6.75
2023-05-12T02:23:53.090Z,7.35
2023-05-12T02:26:21.199Z,6.50
2023-05-12T02:28:48.524Z,6.00
2023-05-12T02:31:15.807Z,5.75
2023-05-12T02:33:43.183Z,5.82
2023-05-12T02:36:10.554Z,5.95
2023-05-12T02:38:37.980Z,7.45
2023-05-12T02:41:05.229Z,5.53
2023-05-12T02:43:32.519Z,6.22
2023-05-12T02:45:59.888Z,5.38
2023-05-12T02:48:27.567Z,5.75
2023-05-12T02:50:54.810Z,6.50
2023-05-12T02:53:22.124Z,6.75
2023-05-12T02:55:49.604Z,5.20
2023-05-12T02:58:16.964Z,5.55
2023-05-12T03:00:44.416Z,6.10
2023-05-12T03:03:12.385Z,5.43
2023-05-12T03:05:40.630Z,4.53
2023-05-12T03:08:08.015Z,4.65
2023-05-12T03:10:35.534Z,4.45
2023-05-12T03:13:02.767Z,4.28
2023-05-12T03:15:30.060Z,4.38
2023-05-12T03:17:57.329Z,4.78
2023-05-12T03:20:24.624Z,4.35
2023-05-12T03:22:51.986Z,3.70
2023-05-12T03:25:19.364Z,3.65
2023-05-12T03:27:46.613Z,3.47
2023-05-12T03:30:14.173Z,3.85
2023-05-12T03:32:41.496Z,3.72
2023-05-12T03:35:10.619Z,3.40
2023-05-12T03:37:38.092Z,4.07
2023-05-12T03:40:07.258Z,5.18
2023-05-12T03:42:34.576Z,4.13
2023-05-12T03:45:01.862Z,4.68
2023-05-12T03:47:29.406Z,5.60
2023-05-12T03:49:57.424Z,6.18
2023-05-12T03:52:24.978Z,6.80
2023-05-12T03:54:52.177Z,6.60
2023-05-12T03:57:21.075Z,7.18
2023-05-12T03:59:48.373Z,8.65
2023-05-12T04:02:15.599Z,10.15
2023-05-12T04:04:43.055Z,9.23
2023-05-12T04:07:10.284Z,10.50
2023-05-12T04:09:37.468Z,10.35
2023-05-12T04:12:05.085Z,11.15
2023-05-12T04:14:42.261Z,10.23
2023-05-12T04:17:10.626Z,10.50
2023-05-12T04:19:38.185Z,11.07
2023-05-12T04:22:05.925Z,13.15
2023-05-12T04:24:33.276Z,17.20
2023-05-12T04:27:00.548Z,18.55
2023-05-12T04:29:27.820Z,16.67
2023-05-12T04:31:56.005Z,19.02
2023-05-12T04:34:23.398Z,18.60
2023-05-12T04:36:51.495Z,18.90
2023-05-12T04:39:19.670Z,20.10
2023-05-12T04:41:46.937Z,19.90
2023-05-12T04:44:14.475Z,21.40
2023-05-12T04:46:43.094Z,22.45
2023-05-12T04:49:10.980Z,25.58
2023-05-12T04:51:42.902Z,23.27
2023-05-12T04:54:11.092Z,23.75
2023-05-12T04:56:38.803Z,27.80
2023-05-12T04:59:07.574Z,23.90
2023-05-12T05:01:34.807Z,24.75
2023-05-12T05:04:02.188Z,28.13
2023-05-12T05:06:29.494Z,27.23
2023-05-12T05:08:57.308Z,25.25
2023-05-12T05:11:24.642Z,29.13
2023-05-12T05:13:52.168Z,26.55
2023-05-12T05:16:19.584Z,25.40
2023-05-12T05:18:48.461Z,27.25
2023-05-12T05:21:15.809Z,26.85
2023-05-12T05:23:43.429Z,30.75
2023-05-12T05:26:12.091Z,24.95
2023-05-12T05:28:40.165Z,28.60
2023-05-12T05:33:35.886Z,27.33
2023-05-12T05:36:04.356Z,28.23
2023-05-12T05:38:32.787Z,29.80
2023-05-12T05:40:59.991Z,27.17
2023-05-12T05:43:29.799Z,29.40
2023-05-12T05:45:58.248Z,26.73
2023-05-12T05:48:25.963Z,24.15
2023-05-12T05:50:54.584Z,25.45
2023-05-12T05:55:51.558Z,26.23
2023-05-12T05:58:18.939Z,26.77
2023-05-12T06:00:47.185Z,25.90
2023-05-12T06:03:14.681Z,25.45
2023-05-12T06:08:13.268Z,26.35
2023-05-12T06:10:43.695Z,25.98
2023-05-12T06:13:10.979Z,26.15
2023-05-12T06:15:38.632Z,25.90
2023-05-12T06:18:05.967Z,29.30
2023-05-12T06:20:33.611Z,26.30
2023-05-12T06:23:02.092Z,27.63
2023-05-12T06:25:29.323Z,28.83
2023-05-12T06:27:56.579Z,26.75
2023-05-12T06:30:23.925Z,29.42
2023-05-12T06:32:55.056Z,24.33
2023-05-12T06:35:22.729Z,26.48
2023-05-12T06:37:51.036Z,27.73
2023-05-12T06:40:18.348Z,27.90
2023-05-12T06:42:45.793Z,25.95
2023-05-12T06:45:19.742Z,27.58
2023-05-12T06:47:47.362Z,26.50
2023-05-12T06:50:16.937Z,25.17
2023-05-12T06:52:44.518Z,26.02
2023-05-12T06:55:11.857Z,26.67
2023-05-12T06:57:39.113Z,26.02
2023-05-12T07:00:07.593Z,27.52
2023-05-12T07:02:34.988Z,24.90
2023-05-12T07:05:02.297Z,26.30
2023-05-12T07:07:29.582Z,24.58
2023-05-12T07:09:57.193Z,30.13
2023-05-12T07:12:25.600Z,26.10
2023-05-12T07:14:52.930Z,29.10
2023-05-12T07:17:21.307Z,28.35
2023-05-12T07:19:48.555Z,23.52
2023-05-12T07:22:15.957Z,27.52
2023-05-12T07:24:43.509Z,28.52
2023-05-12T07:27:10.956Z,26.83
2023-05-12T07:29:38.663Z,28.52
2023-05-12T07:32:06.202Z,26.55
2023-05-12T07:34:34.033Z,26.45
2023-05-12T07:37:02.491Z,24.67
2023-05-12T07:39:32.239Z,25.45
2023-05-12T07:41:59.749Z,29.00
2023-05-12T07:44:28.171Z,24.23
2023-05-12T07:46:55.685Z,27.60
2023-05-12T07:49:23.363Z,23.70
2023-05-12T07:51:50.911Z,23.95
2023-05-12T07:54:18.330Z,23.85
2023-05-12T07:56:46.108Z,23.83
2023-05-12T07:59:14.390Z,25.15
2023-05-12T08:01:41.834Z,24.50
2023-05-12T08:04:09.284Z,25.90
2023-05-12T08:06:36.683Z,24.35
2023-05-12T08:09:04.011Z,23.65
2023-05-12T08:11:31.731Z,23.55
2023-05-12T08:13:59.090Z,25.40
2023-05-12T08:16:26.443Z,22.85
2023-05-12T08:18:53.778Z,21.95
2023-05-12T08:21:21.244Z,23.30
2023-05-12T08:23:48.543Z,23.98
2023-05-12T08:26:15.845Z,23.67
2023-05-12T08:28:43.140Z,22.83
2023-05-12T08:31:12.981Z,24.13
2023-05-12T08:33:40.261Z,24.98
2023-05-12T08:36:07.568Z,25.63
2023-05-12T08:38:34.931Z,23.23
2023-05-12T08:41:05.131Z,22.85
2023-05-12T08:43:39.455Z,21.65
2023-05-12T08:46:07.008Z,23.60
2023-05-12T08:48:35.675Z,22.15
2023-05-12T08:51:03.669Z,21.85
2023-05-12T08:53:31.709Z,22.52
2023-05-12T08:58:49.079Z,22.90
2023-05-12T09:01:18.228Z,22.48
2023-05-12T09:03:45.669Z,21.63
2023-05-12T09:06:13.975Z,22.55
2023-05-12T09:08:41.468Z,21.05
2023-05-12T09:11:12.084Z,20.23
2023-05-12T09:13:48.157Z,21.55
2023-05-12T09:16:15.738Z,22.38
2023-05-12T09:18:52.249Z,22.02
2023-05-12T09:21:19.805Z,21.88
2023-05-12T09:23:54.000Z,21.77
2023-05-12T09:26:22.741Z,20.35
2023-05-12T09:28:50.913Z,21.80
2023-05-12T09:31:22.764Z,21.00
2023-05-12T09:33:51.013Z,20.13
2023-05-12T09:36:19.418Z,19.50
2023-05-12T09:38:46.771Z,21.50
2023-05-12T09:41:14.088Z,20.15
2023-05-12T09:43:53.129Z,21.30
2023-05-12T09:48:48.497Z,19.95
2023-05-12T09:51:18.936Z,18.90
2023-05-12T09:53:47.062Z,19.85
2023-05-12T09:56:14.847Z,20.10
2023-05-12T09:58:49.055Z,19.30
2023-05-12T10:01:23.288Z,20.80
2023-05-12T10:03:55.776Z,21.48
2023-05-12T10:06:30.329Z,19.13
2023-05-12T10:09:05.104Z,18.75
2023-05-12T10:11:33.544Z,19.00
2023-05-12T10:14:01.371Z,18.60
2023-05-12T10:16:28.955Z,19.88
2023-05-12T10:18:56.729Z,17.77
2023-05-12T10:21:26.058Z,20.60
2023-05-12T10:23:54.586Z,18.70
2023-05-12T10:26:23.313Z,17.38
2023-05-12T10:28:51.212Z,18.25
2023-05-12T10:31:19.081Z,20.63
2023-05-12T10:33:56.534Z,18.83
2023-05-12T10:36:24.604Z,18.05
2023-05-12T10:38:51.876Z,19.90
2023-05-12T10:41:29.672Z,18.20
2023-05-12T10:43:57.111Z,19.92
2023-05-12T10:46:26.559Z,19.55
2023-05-12T10:48:59.800Z,19.30
2023-05-12T10:51:28.732Z,19.27
2023-05-12T10:56:25.546Z,19.65
2023-05-12T10:59:13.476Z,18.02
2023-05-12T11:01:42.807Z,16.70
2023-05-12T11:04:11.587Z,18.23
2023-05-12T11:06:40.826Z,17.73
2023-05-12T11:09:09.139Z,16.27
2023-05-12T11:11:36.642Z,19.37
2023-05-12T11:14:03.900Z,16.38
2023-05-12T11:16:31.521Z,16.90
2023-05-12T11:19:03.265Z,16.13
2023-05-12T11:21:31.957Z,15.93
2023-05-12T11:24:00.185Z,16.35
2023-05-12T11:26:27.907Z,17.60
2023-05-12T11:28:55.541Z,17.38
2023-05-12T11:31:23.645Z,16.15
2023-05-12T11:34:01.312Z,17.60
2023-05-12T11:36:39.476Z,16.65
2023-05-12T11:39:07.152Z,16.27
2023-05-12T11:41:34.487Z,15.80
2023-05-12T11:44:12.997Z,15.32
2023-05-12T11:46:41.135Z,15.57
2023-05-12T11:49:12.028Z,14.48
2023-05-12T11:51:42.952Z,14.07
2023-05-12T11:54:10.254Z,15.65
2023-05-12T11:56:37.464Z,18.27
2023-05-12T11:59:04.876Z,16.60
2023-05-12T12:01:34.411Z,17.55
2023-05-12T12:04:01.819Z,16.25
2023-05-12T12:06:29.212Z,17.05
2023-05-12T12:08:57.645Z,16.42
2023-05-12T12:11:28.364Z,16.42
2023-05-12T12:13:56.971Z,16.08
2023-05-12T12:16:25.812Z,16.98
2023-05-12T12:18:53.434Z,15.85
2023-05-12T12:21:21.686Z,17.02
2023-05-12T12:23:51.652Z,16.05
2023-05-12T12:26:21.502Z,15.60
2023-05-12T12:28:49.022Z,17.15
2023-05-12T12:31:16.829Z,17.50
2023-05-12T12:33:44.152Z,18.20
2023-05-12T12:36:11.472Z,17.13
2023-05-12T12:38:38.774Z,17.88
2023-05-12T12:41:07.146Z,17.20
2023-05-12T12:43:34.490Z,21.92
2023-05-12T12:46:01.740Z,17.70
2023-05-12T12:48:29.010Z,15.90
2023-05-12T12:50:56.601Z,16.67
2023-05-12T12:53:23.949Z,16.02
2023-05-12T12:55:51.229Z,15.60
2023-05-12T12:58:18.540Z,16.25
2023-05-12T13:00:45.812Z,15.63
2023-05-12T13:03:13.370Z,15.43
2023-05-12T13:05:40.839Z,15.88
2023-05-12T13:08:08.128Z,13.88
2023-05-12T13:10:35.596Z,15.75
2023-05-12T13:13:02.951Z,14.82
2023-05-12T13:15:32.280Z,12.93
2023-05-12T13:18:00.230Z,14.60
2023-05-12T13:20:27.976Z,13.80
2023-05-12T13:22:55.289Z,14.85
2023-05-12T13:25:22.864Z,13.48
2023-05-12T13:27:50.224Z,13.73
2023-05-12T13:30:17.534Z,14.13
2023-05-12T13:32:45.201Z,14.35
2023-05-12T13:35:12.666Z,13.45
2023-05-12T13:37:40.020Z,13.60
2023-05-12T13:40:07.904Z,13.52
2023-05-12T13:42:35.302Z,12.77
2023-05-12T13:45:05.204Z,12.95
2023-05-12T13:47:33.256Z,13.38
2023-05-12T13:50:01.391Z,12.53
2023-05-12T13:52:29.892Z,12.95
2023-05-12T13:54:58.914Z,11.85
2023-05-12T13:59:57.632Z,12.75
2023-05-12T14:02:25.231Z,11.10
2023-05-12T14:04:54.465Z,11.02
2023-05-12T14:07:21.766Z,11.05
2023-05-12T14:09:49.053Z,10.50
2023-05-12T14:12:16.318Z,11.75
2023-05-12T14:14:49.473Z,10.50
2023-05-12T14:17:17.223Z,10.23
2023-05-12T14:19:44.497Z,10.50
2023-05-12T14:22:22.374Z,10.60
2023-05-12T14:24:53.485Z,9.85
2023-05-12T14:27:20.746Z,9.60
2023-05-12T14:29:48.293Z,9.27
2023-05-12T14:32:16.148Z,8.48
2023-05-12T14:34:43.493Z,8.40
2023-05-12T14:37:10.796Z,9.20
2023-05-12T14:39:38.018Z,9.18
2023-05-12T14:42:05.342Z,8.00
2023-05-12T14:44:32.661Z,8.35
2023-05-12T14:46:59.913Z,8.65
2023-05-12T14:49:27.196Z,8.57
2023-05-12T14:51:55.561Z,8.35
2023-05-12T14:54:25.810Z,8.23
2023-05-12T14:56:53.504Z,9.10
2023-05-12T14:59:20.818Z,8.75
2023-05-12T15:01:48.087Z,8.52
2023-05-12T15:04:15.344Z,8.43
2023-05-12T15:06:42.633Z,8.65
2023-05-12T15:09:09.885Z,9.05
2023-05-12T15:11:37.680Z,8.88
2023-05-12T15:14:05.039Z,8.65
2023-05-12T15:16:33.182Z,9.02
2023-05-12T15:19:00.563Z,9.73
2023-05-12T15:21:27.883Z,8.80
2023-05-12T15:23:55.109Z,8.95
2023-05-12T15:26:32.738Z,9.23
2023-05-12T15:29:03.770Z,10.00
2023-05-12T15:31:31.367Z,10.48
2023-05-12T15:33:58.714Z,10.35
2023-05-12T15:36:26.059Z,9.88
2023-05-12T15:38:53.582Z,9.60
2023-05-12T15:41:20.867Z,9.80
2023-05-12T15:43:48.147Z,9.70
2023-05-12T15:46:15.582Z,9.40
2023-05-12T15:48:42.907Z,10.00
2023-05-12T15:51:10.276Z,10.13
2023-05-12T15:53:37.527Z,10.27
2023-05-12T15:56:05.481Z,9.55
2023-05-12T15:58:32.867Z,9.02
2023-05-12T16:01:00.398Z,9.02
2023-05-12T16:03:27.857Z,9.68
2023-05-12T16:05:55.839Z,10.07
2023-05-12T16:08:24.067Z,9.77
2023-05-12T16:10:51.391Z,8.48
2023-05-12T16:13:18.646Z,8.18
2023-05-12T16:15:46.015Z,7.05
2023-05-12T16:18:13.305Z,7.63
2023-05-12T16:20:41.754Z,7.55
2023-05-12T16:23:09.161Z,7.40
2023-05-12T16:25:37.280Z,9.23
2023-05-12T16:28:05.338Z,8.67
2023-05-12T16:30:32.538Z,8.40
2023-05-12T16:32:59.871Z,7.78
2023-05-12T16:35:27.212Z,7.75
2023-05-12T16:37:54.482Z,7.68
2023-05-12T16:40:21.869Z,6.43
2023-05-12T16:42:49.140Z,7.45
2023-05-12T16:45:16.373Z,8.82
2023-05-12T16:47:43.617Z,10.73
2023-05-12T16:50:11.617Z,7.45
2023-05-12T16:52:39.037Z,6.93
2023-05-12T16:55:06.805Z,7.03
2023-05-12T16:57:34.606Z,7.93
2023-05-12T17:00:06.153Z,7.15
2023-05-12T17:02:36.645Z,7.07
2023-05-12T17:05:04.009Z,6.68
2023-05-12T17:07:31.281Z,6.07
2023-05-12T17:09:58.542Z,6.82
2023-05-12T17:12:26.246Z,7.78
2023-05-12T17:15:06.290Z,7.07
2023-05-12T17:17:35.369Z,7.60
2023-05-12T17:20:02.844Z,7.57
2023-05-12T17:22:32.029Z,7.68
2023-05-12T17:24:59.339Z,7.63
2023-05-12T17:27:26.574Z,8.20
2023-05-12T17:29:53.894Z,7.80
2023-05-12T17:32:21.445Z,8.40
2023-05-12T17:34:51.060Z,7.95
2023-05-12T17:37:18.668Z,10.00
2023-05-12T17:39:46.219Z,9.98
2023-05-12T17:42:13.607Z,10.48
2023-05-12T17:44:41.027Z,11.43
2023-05-12T17:47:08.346Z,12.10
2023-05-12T17:49:36.440Z,15.73
2023-05-12T17:52:03.761Z,19.02
2023-05-12T17:54:31.504Z,21.55
2023-05-12T17:56:59.452Z,24.33
2023-05-12T17:59:26.798Z,25.40
2023-05-12T18:01:54.127Z,24.75
2023-05-12T18:04:23.069Z,23.17
2023-05-12T18:06:50.379Z,24.08
2023-05-12T18:09:18.091Z,23.77
2023-05-12T18:11:45.521Z,21.83
2023-05-12T18:14:13.308Z,21.95
2023-05-12T18:16:40.807Z,21.95
2023-05-12T18:19:08.708Z,21.95
2023-05-12T18:21:36.323Z,19.98
2023-05-12T18:24:03.690Z,20.95
2023-05-12T18:26:31.154Z,23.15
2023-05-12T18:28:59.052Z,18.20
2023-05-12T18:31:29.797Z,19.30
2023-05-12T18:33:57.155Z,19.20
2023-05-12T18:36:24.348Z,18.52
2023-05-12T18:38:51.733Z,18.67
2023-05-12T18:41:19.041Z,17.25
2023-05-12T18:43:46.689Z,17.45
2023-05-12T18:46:14.037Z,16.17
2023-05-12T18:48:41.394Z,17.90
2023-05-12T18:51:09.473Z,16.17
2023-05-12T18:53:37.164Z,16.45
2023-05-12T18:56:04.535Z,16.95
2023-05-12T18:58:31.799Z,17.42
2023-05-12T19:00:59.071Z,17.95
2023-05-12T19:03:26.503Z,15.80
2023-05-12T19:05:53.876Z,16.13
2023-05-12T19:08:21.206Z,16.00
2023-05-12T19:10:48.773Z,15.82
2023-05-12T19:13:16.054Z,16.20
2023-05-12T19:15:43.363Z,16.30
2023-05-12T19:18:10.637Z,15.80
2023-05-12T19:20:38.216Z,17.00
2023-05-12T19:23:05.636Z,14.98
2023-05-12T19:25:32.898Z,15.63
2023-05-12T19:28:00.792Z,15.73
2023-05-12T19:30:29.449Z,15.45
2023-05-12T19:32:56.821Z,15.75
2023-05-12T19:35:24.612Z,15.10
2023-05-12T19:37:51.981Z,14.30
2023-05-12T19:40:19.217Z,14.52
2023-05-12T19:42:46.845Z,14.35
2023-05-12T19:45:15.544Z,15.02
2023-05-12T19:47:43.010Z,14.80
2023-05-12T19:50:10.650Z,15.05
2023-05-12T19:52:39.227Z,14.52
2023-05-12T19:55:08.495Z,15.63
2023-05-12T19:57:36.930Z,17.55
2023-05-12T20:00:04.555Z,14.13
2023-05-12T20:02:39.763Z,15.02
2023-05-12T20:05:07.454Z,14.80
2023-05-12T20:07:34.769Z,15.43
2023-05-12T20:10:02.152Z,14.60
2023-05-12T20:12:29.436Z,16.52
2023-05-12T20:14:56.950Z,15.55
2023-05-12T20:17:24.308Z,15.30
2023-05-12T20:19:51.553Z,15.75
2023-05-12T20:22:18.982Z,15.25
2023-05-12T20:24:46.311Z,14.70
2023-05-12T20:27:13.588Z,16.55
2023-05-12T20:29:41.080Z,15.77
2023-05-12T20:32:08.475Z,15.60
2023-05-12T20:34:35.779Z,15.98
2023-05-12T20:37:03.385Z,16.17
2023-05-12T20:39:30.590Z,16.42
2023-05-12T20:41:58.459Z,16.67
2023-05-12T20:44:27.084Z,17.17
2023-05-12T20:46:54.471Z,18.08
2023-05-12T20:49:22.153Z,17.08
2023-05-12T20:51:49.407Z,17.80
2023-05-12T20:54:16.650Z,17.08
2023-05-12T20:56:43.991Z,17.83
2023-05-12T20:59:11.277Z,18.92
2023-05-12T21:01:39.041Z,19.50
2023-05-12T21:04:06.491Z,21.33
2023-05-12T21:06:35.899Z,20.27
2023-05-12T21:09:04.885Z,20.88
2023-05-12T21:11:32.121Z,21.98
2023-05-12T21:13:59.420Z,19.35
2023-05-12T21:16:26.665Z,22.63
2023-05-12T21:18:54.131Z,22.92
2023-05-12T21:21:21.449Z,23.42
2023-05-12T21:23:48.714Z,23.88
2023-05-12T21:26:16.051Z,21.98
2023-05-12T21:28:43.279Z,24.10
2023-05-12T21:31:10.551Z,25.42
2023-05-12T21:33:37.944Z,25.13
2023-05-12T21:36:05.553Z,25.35
2023-05-12T21:38:33.046Z,24.50
2023-05-12T21:41:00.429Z,24.77
2023-05-12T21:43:27.707Z,25.52
2023-05-12T21:45:55.006Z,23.50
2023-05-12T21:48:22.313Z,23.75
2023-05-12T21:50:59.576Z,26.98
2023-05-12T21:53:26.866Z,24.08
2023-05-12T21:55:55.864Z,26.50
2023-05-12T21:58:24.230Z,25.73
2023-05-12T22:00:54.051Z,25.25
2023-05-12T22:03:21.916Z,25.20
2023-05-12T22:05:49.928Z,25.67
2023-05-12T22:08:17.407Z,25.00
2023-05-12T22:10:44.678Z,25.35
2023-05-12T22:13:11.931Z,25.20
2023-05-12T22:15:39.293Z,25.33
2023-05-12T22:18:06.637Z,23.25
2023-05-12T22:20:34.039Z,23.15
2023-05-12T22:23:01.319Z,22.77
2023-05-12T22:25:28.657Z,22.75
2023-05-12T22:27:55.996Z,23.00
2023-05-12T22:30:23.673Z,22.40
2023-05-12T22:32:51.487Z,20.92
2023-05-12T22:35:18.751Z,21.60
2023-05-12T22:37:45.989Z,22.10
2023-05-12T22:40:13.365Z,21.48
2023-05-12T22:42:40.714Z,19.70
2023-05-12T22:45:08.268Z,20.65
2023-05-12T22:47:35.609Z,19.02
2023-05-12T22:50:02.975Z,18.55
2023-05-12T22:52:30.265Z,18.02
2023-05-12T22:54:57.556Z,17.63
2023-05-12T22:57:27.397Z,17.55
2023-05-12T22:59:54.611Z,17.13
2023-05-12T23:02:22.015Z,16.20
2023-05-12T23:04:49.199Z,16.05
2023-05-12T23:07:17.317Z,15.02
2023-05-12T23:09:46.516Z,15.65
2023-05-12T23:12:17.668Z,15.20
2023-05-12T23:14:47.616Z,14.55
2023-05-12T23:17:17.483Z,13.93
2023-05-12T23:19:49.262Z,12.38
2023-05-12T23:22:19.088Z,11.23
2023-05-12T23:24:51.066Z,10.85
2023-05-12T23:27:28.813Z,10.75
2023-05-12T23:30:07.458Z,10.52
2023-05-12T23:32:56.310Z,10.63
2023-05-12T23:35:31.858Z,10.57
2023-05-12T23:38:06.689Z,10.13
2023-05-12T23:40:40.362Z,9.27
2023-05-12T23:46:03.046Z,8.48
2023-05-12T23:48:38.324Z,8.50
2023-05-12T23:51:11.067Z,7.43
2023-05-12T23:53:39.124Z,7.43
2023-05-12T23:56:06.659Z,6.90
2023-05-12T23:58:35.501Z,7.35
